sensor_id;sensor_type;location;lat;lon;timestamp;P1;durP1;ratioP1;P2;durP2;ratioP2
16890;SDS011;8562;52.246;20.966;2022-10-13T00:00:19;11.40;;;5.77;;
16890;SDS011;8562;52.246;20.966;2022-10-13T00:02:45;10.43;;;5.00;;
16890;SDS011;8562;52.246;20.966;2022-10-13T00:05:11;9.53;;;5.93;;
16890;SDS011;8562;52.246;20.966;2022-10-13T00:07:37;10.00;;;5.63;;
16890;SDS011;8562;52.246;20.966;2022-10-13T00:10:04;10.57;;;5.50;;
16890;SDS011;8562;52.246;20.966;2022-10-13T00:12:33;11.97;;;5.60;;
16890;SDS011;8562;52.246;20.966;2022-10-13T00:15:01;11.90;;;6.03;;
16890;SDS011;8562;52.246;20.966;2022-10-13T00:17:28;8.60;;;5.20;;
16890;SDS011;8562;52.246;20.966;2022-10-13T00:19:54;10.97;;;5.83;;
16890;SDS011;8562;52.246;20.966;2022-10-13T00:22:20;11.67;;;5.93;;
16890;SDS011;8562;52.246;20.966;2022-10-13T00:24:50;10.53;;;4.87;;
16890;SDS011;8562;52.246;20.966;2022-10-13T00:27:16;7.87;;;5.60;;
16890;SDS011;8562;52.246;20.966;2022-10-13T00:29:42;7.30;;;4.33;;
16890;SDS011;8562;52.246;20.966;2022-10-13T00:32:08;10.10;;;5.60;;
16890;SDS011;8562;52.246;20.966;2022-10-13T00:34:37;11.80;;;6.23;;
16890;SDS011;8562;52.246;20.966;2022-10-13T00:37:04;9.90;;;6.27;;
16890;SDS011;8562;52.246;20.966;2022-10-13T00:39:30;12.23;;;5.80;;
16890;SDS011;8562;52.246;20.966;2022-10-13T00:41:57;12.20;;;5.87;;
16890;SDS011;8562;52.246;20.966;2022-10-13T00:47:08;13.03;;;6.17;;
16890;SDS011;8562;52.246;20.966;2022-10-13T00:49:35;8.67;;;5.23;;
16890;SDS011;8562;52.246;20.966;2022-10-13T00:52:01;8.57;;;6.03;;
16890;SDS011;8562;52.246;20.966;2022-10-13T00:54:29;9.13;;;6.23;;
16890;SDS011;8562;52.246;20.966;2022-10-13T00:56:55;12.93;;;5.93;;
16890;SDS011;8562;52.246;20.966;2022-10-13T00:59:25;9.53;;;5.23;;
16890;SDS011;8562;52.246;20.966;2022-10-13T01:01:53;9.10;;;6.27;;
16890;SDS011;8562;52.246;20.966;2022-10-13T01:04:21;7.50;;;5.50;;
16890;SDS011;8562;52.246;20.966;2022-10-13T01:06:48;10.97;;;5.80;;
16890;SDS011;8562;52.246;20.966;2022-10-13T01:09:15;10.47;;;6.27;;
16890;SDS011;8562;52.246;20.966;2022-10-13T01:16:50;8.80;;;5.67;;
16890;SDS011;8562;52.246;20.966;2022-10-13T01:19:22;10.13;;;5.87;;
16890;SDS011;8562;52.246;20.966;2022-10-13T01:21:59;7.57;;;5.50;;
16890;SDS011;8562;52.246;20.966;2022-10-13T01:34:40;10.73;;;5.23;;
16890;SDS011;8562;52.246;20.966;2022-10-13T01:37:19;9.23;;;5.87;;
16890;SDS011;8562;52.246;20.966;2022-10-13T01:42:28;7.53;;;5.60;;
16890;SDS011;8562;52.246;20.966;2022-10-13T01:45:00;8.93;;;5.10;;
16890;SDS011;8562;52.246;20.966;2022-10-13T01:47:28;10.87;;;5.37;;
16890;SDS011;8562;52.246;20.966;2022-10-13T01:49:55;6.83;;;5.43;;
16890;SDS011;8562;52.246;20.966;2022-10-13T01:52:23;12.23;;;6.53;;
16890;SDS011;8562;52.246;20.966;2022-10-13T01:54:50;7.40;;;5.63;;
16890;SDS011;8562;52.246;20.966;2022-10-13T01:57:33;13.03;;;5.20;;
16890;SDS011;8562;52.246;20.966;2022-10-13T02:00:00;8.40;;;5.67;;
16890;SDS011;8562;52.246;20.966;2022-10-13T02:05:21;12.13;;;5.87;;
16890;SDS011;8562;52.246;20.966;2022-10-13T02:08:12;10.53;;;6.27;;
16890;SDS011;8562;52.246;20.966;2022-10-13T02:13:13;8.37;;;7.23;;
16890;SDS011;8562;52.246;20.966;2022-10-13T02:15:42;12.07;;;8.07;;
16890;SDS011;8562;52.246;20.966;2022-10-13T02:18:13;7.30;;;6.03;;
16890;SDS011;8562;52.246;20.966;2022-10-13T02:20:40;9.77;;;6.60;;
16890;SDS011;8562;52.246;20.966;2022-10-13T02:23:08;11.50;;;7.47;;
16890;SDS011;8562;52.246;20.966;2022-10-13T02:25:36;12.00;;;8.10;;
16890;SDS011;8562;52.246;20.966;2022-10-13T02:28:02;16.80;;;7.60;;
16890;SDS011;8562;52.246;20.966;2022-10-13T02:30:30;11.17;;;7.43;;
16890;SDS011;8562;52.246;20.966;2022-10-13T02:32:57;12.97;;;7.80;;
16890;SDS011;8562;52.246;20.966;2022-10-13T02:35:24;12.03;;;6.97;;
16890;SDS011;8562;52.246;20.966;2022-10-13T02:37:50;11.40;;;7.63;;
16890;SDS011;8562;52.246;20.966;2022-10-13T02:40:16;12.13;;;8.03;;
16890;SDS011;8562;52.246;20.966;2022-10-13T02:42:42;14.10;;;7.20;;
16890;SDS011;8562;52.246;20.966;2022-10-13T02:45:09;15.07;;;8.13;;
16890;SDS011;8562;52.246;20.966;2022-10-13T02:47:35;11.77;;;6.57;;
16890;SDS011;8562;52.246;20.966;2022-10-13T02:50:02;8.63;;;6.03;;
16890;SDS011;8562;52.246;20.966;2022-10-13T02:52:29;12.43;;;7.77;;
16890;SDS011;8562;52.246;20.966;2022-10-13T02:54:55;10.60;;;6.90;;
16890;SDS011;8562;52.246;20.966;2022-10-13T02:57:21;11.60;;;7.43;;
16890;SDS011;8562;52.246;20.966;2022-10-13T02:59:48;11.73;;;7.23;;
16890;SDS011;8562;52.246;20.966;2022-10-13T03:02:14;11.13;;;7.07;;
16890;SDS011;8562;52.246;20.966;2022-10-13T03:04:40;10.60;;;6.80;;
16890;SDS011;8562;52.246;20.966;2022-10-13T03:07:06;8.50;;;6.50;;
16890;SDS011;8562;52.246;20.966;2022-10-13T03:09:32;12.40;;;6.77;;
16890;SDS011;8562;52.246;20.966;2022-10-13T03:11:58;11.03;;;7.47;;
16890;SDS011;8562;52.246;20.966;2022-10-13T03:14:24;21.03;;;7.27;;
16890;SDS011;8562;52.246;20.966;2022-10-13T03:16:50;10.03;;;6.93;;
16890;SDS011;8562;52.246;20.966;2022-10-13T03:19:18;10.30;;;7.00;;
16890;SDS011;8562;52.246;20.966;2022-10-13T03:21:44;12.20;;;6.90;;
16890;SDS011;8562;52.246;20.966;2022-10-13T03:24:10;13.60;;;7.63;;
16890;SDS011;8562;52.246;20.966;2022-10-13T03:26:36;11.93;;;7.63;;
16890;SDS011;8562;52.246;20.966;2022-10-13T03:29:03;14.73;;;6.70;;
16890;SDS011;8562;52.246;20.966;2022-10-13T03:31:29;13.37;;;7.77;;
16890;SDS011;8562;52.246;20.966;2022-10-13T03:34:00;13.37;;;6.97;;
16890;SDS011;8562;52.246;20.966;2022-10-13T03:36:27;9.27;;;6.77;;
16890;SDS011;8562;52.246;20.966;2022-10-13T03:38:53;8.87;;;6.27;;
16890;SDS011;8562;52.246;20.966;2022-10-13T03:41:19;12.30;;;6.93;;
16890;SDS011;8562;52.246;20.966;2022-10-13T03:43:48;8.80;;;5.57;;
16890;SDS011;8562;52.246;20.966;2022-10-13T03:46:14;10.00;;;6.27;;
16890;SDS011;8562;52.246;20.966;2022-10-13T03:48:44;10.23;;;6.23;;
16890;SDS011;8562;52.246;20.966;2022-10-13T03:51:12;15.70;;;6.47;;
16890;SDS011;8562;52.246;20.966;2022-10-13T03:53:43;9.40;;;6.77;;
16890;SDS011;8562;52.246;20.966;2022-10-13T03:56:11;12.63;;;5.57;;
16890;SDS011;8562;52.246;20.966;2022-10-13T03:58:42;15.07;;;7.57;;
16890;SDS011;8562;52.246;20.966;2022-10-13T04:01:09;9.73;;;6.40;;
16890;SDS011;8562;52.246;20.966;2022-10-13T04:03:37;15.83;;;6.27;;
16890;SDS011;8562;52.246;20.966;2022-10-13T04:06:04;10.73;;;6.23;;
16890;SDS011;8562;52.246;20.966;2022-10-13T04:08:30;11.47;;;7.40;;
16890;SDS011;8562;52.246;20.966;2022-10-13T04:10:58;9.30;;;6.70;;
16890;SDS011;8562;52.246;20.966;2022-10-13T04:13:24;9.77;;;6.80;;
16890;SDS011;8562;52.246;20.966;2022-10-13T04:15:50;10.20;;;7.13;;
16890;SDS011;8562;52.246;20.966;2022-10-13T04:18:16;6.80;;;6.07;;
16890;SDS011;8562;52.246;20.966;2022-10-13T04:20:42;10.47;;;6.23;;
16890;SDS011;8562;52.246;20.966;2022-10-13T04:23:08;9.20;;;6.47;;
16890;SDS011;8562;52.246;20.966;2022-10-13T04:25:38;11.93;;;6.40;;
16890;SDS011;8562;52.246;20.966;2022-10-13T04:28:05;11.50;;;8.10;;
16890;SDS011;8562;52.246;20.966;2022-10-13T04:30:34;9.87;;;7.23;;
16890;SDS011;8562;52.246;20.966;2022-10-13T04:33:01;11.80;;;7.17;;
16890;SDS011;8562;52.246;20.966;2022-10-13T04:35:27;13.50;;;6.80;;
16890;SDS011;8562;52.246;20.966;2022-10-13T04:37:53;10.57;;;6.87;;
16890;SDS011;8562;52.246;20.966;2022-10-13T04:40:22;8.83;;;6.30;;
16890;SDS011;8562;52.246;20.966;2022-10-13T04:42:48;9.07;;;6.47;;
16890;SDS011;8562;52.246;20.966;2022-10-13T04:45:14;9.93;;;6.80;;
16890;SDS011;8562;52.246;20.966;2022-10-13T04:47:41;10.57;;;6.80;;
16890;SDS011;8562;52.246;20.966;2022-10-13T04:50:07;13.50;;;7.37;;
16890;SDS011;8562;52.246;20.966;2022-10-13T04:52:34;10.93;;;7.13;;
16890;SDS011;8562;52.246;20.966;2022-10-13T04:55:00;9.77;;;7.43;;
16890;SDS011;8562;52.246;20.966;2022-10-13T04:57:26;13.43;;;8.10;;
16890;SDS011;8562;52.246;20.966;2022-10-13T04:59:52;8.80;;;6.80;;
16890;SDS011;8562;52.246;20.966;2022-10-13T05:02:18;9.97;;;7.33;;
16890;SDS011;8562;52.246;20.966;2022-10-13T05:04:45;13.03;;;7.90;;
16890;SDS011;8562;52.246;20.966;2022-10-13T05:07:11;12.60;;;8.40;;
16890;SDS011;8562;52.246;20.966;2022-10-13T05:09:38;9.97;;;7.37;;
16890;SDS011;8562;52.246;20.966;2022-10-13T05:12:08;17.57;;;8.87;;
16890;SDS011;8562;52.246;20.966;2022-10-13T05:14:35;10.13;;;7.50;;
16890;SDS011;8562;52.246;20.966;2022-10-13T05:17:03;12.17;;;8.67;;
16890;SDS011;8562;52.246;20.966;2022-10-13T05:19:29;13.43;;;8.13;;
16890;SDS011;8562;52.246;20.966;2022-10-13T05:21:56;16.07;;;8.77;;
16890;SDS011;8562;52.246;20.966;2022-10-13T05:24:22;11.83;;;8.43;;
16890;SDS011;8562;52.246;20.966;2022-10-13T05:27:01;16.27;;;8.87;;
16890;SDS011;8562;52.246;20.966;2022-10-13T05:29:27;15.07;;;8.37;;
16890;SDS011;8562;52.246;20.966;2022-10-13T05:31:53;13.67;;;8.37;;
16890;SDS011;8562;52.246;20.966;2022-10-13T05:34:19;11.13;;;8.33;;
16890;SDS011;8562;52.246;20.966;2022-10-13T05:36:45;13.50;;;8.37;;
16890;SDS011;8562;52.246;20.966;2022-10-13T05:39:12;13.80;;;8.50;;
16890;SDS011;8562;52.246;20.966;2022-10-13T05:41:38;17.53;;;9.17;;
16890;SDS011;8562;52.246;20.966;2022-10-13T05:44:11;11.93;;;8.77;;
16890;SDS011;8562;52.246;20.966;2022-10-13T05:46:51;11.57;;;8.73;;
16890;SDS011;8562;52.246;20.966;2022-10-13T05:49:17;8.47;;;7.50;;
16890;SDS011;8562;52.246;20.966;2022-10-13T05:51:48;14.20;;;8.57;;
16890;SDS011;8562;52.246;20.966;2022-10-13T05:54:16;13.70;;;8.57;;
16890;SDS011;8562;52.246;20.966;2022-10-13T05:56:44;14.67;;;8.73;;
16890;SDS011;8562;52.246;20.966;2022-10-13T05:59:11;15.60;;;8.60;;
16890;SDS011;8562;52.246;20.966;2022-10-13T06:01:38;10.23;;;7.23;;
16890;SDS011;8562;52.246;20.966;2022-10-13T06:04:07;15.37;;;8.60;;
16890;SDS011;8562;52.246;20.966;2022-10-13T06:06:34;12.13;;;7.07;;
16890;SDS011;8562;52.246;20.966;2022-10-13T06:09:00;11.97;;;7.03;;
16890;SDS011;8562;52.246;20.966;2022-10-13T06:11:26;15.53;;;7.87;;
16890;SDS011;8562;52.246;20.966;2022-10-13T06:13:52;12.87;;;7.37;;
16890;SDS011;8562;52.246;20.966;2022-10-13T06:16:19;13.00;;;7.13;;
16890;SDS011;8562;52.246;20.966;2022-10-13T06:18:45;15.23;;;7.10;;
16890;SDS011;8562;52.246;20.966;2022-10-13T06:21:11;13.00;;;7.47;;
16890;SDS011;8562;52.246;20.966;2022-10-13T06:23:37;13.67;;;7.57;;
16890;SDS011;8562;52.246;20.966;2022-10-13T06:26:05;15.43;;;7.83;;
16890;SDS011;8562;52.246;20.966;2022-10-13T06:28:32;12.27;;;8.03;;
16890;SDS011;8562;52.246;20.966;2022-10-13T06:30:58;14.67;;;7.23;;
16890;SDS011;8562;52.246;20.966;2022-10-13T06:33:25;11.70;;;7.30;;
16890;SDS011;8562;52.246;20.966;2022-10-13T06:35:51;12.40;;;6.33;;
16890;SDS011;8562;52.246;20.966;2022-10-13T06:38:17;11.57;;;7.13;;
16890;SDS011;8562;52.246;20.966;2022-10-13T06:40:46;11.57;;;7.47;;
16890;SDS011;8562;52.246;20.966;2022-10-13T06:43:12;10.83;;;6.37;;
16890;SDS011;8562;52.246;20.966;2022-10-13T06:45:39;22.40;;;8.57;;
16890;SDS011;8562;52.246;20.966;2022-10-13T06:48:06;13.87;;;7.60;;
16890;SDS011;8562;52.246;20.966;2022-10-13T06:50:32;8.43;;;6.93;;
16890;SDS011;8562;52.246;20.966;2022-10-13T06:52:58;10.23;;;7.20;;
16890;SDS011;8562;52.246;20.966;2022-10-13T06:55:24;9.03;;;5.73;;
16890;SDS011;8562;52.246;20.966;2022-10-13T06:57:50;9.53;;;6.07;;
16890;SDS011;8562;52.246;20.966;2022-10-13T07:00:16;9.97;;;6.20;;
16890;SDS011;8562;52.246;20.966;2022-10-13T07:02:47;9.03;;;6.57;;
16890;SDS011;8562;52.246;20.966;2022-10-13T07:05:14;12.53;;;7.07;;
16890;SDS011;8562;52.246;20.966;2022-10-13T07:07:40;9.10;;;6.17;;
16890;SDS011;8562;52.246;20.966;2022-10-13T07:10:06;13.03;;;5.43;;
16890;SDS011;8562;52.246;20.966;2022-10-13T07:12:33;9.63;;;6.63;;
16890;SDS011;8562;52.246;20.966;2022-10-13T07:14:59;10.60;;;6.40;;
16890;SDS011;8562;52.246;20.966;2022-10-13T07:17:25;11.77;;;6.50;;
16890;SDS011;8562;52.246;20.966;2022-10-13T07:19:51;10.63;;;6.27;;
16890;SDS011;8562;52.246;20.966;2022-10-13T07:22:17;13.20;;;6.87;;
16890;SDS011;8562;52.246;20.966;2022-10-13T07:24:43;12.90;;;5.77;;
16890;SDS011;8562;52.246;20.966;2022-10-13T07:27:11;7.63;;;5.90;;
16890;SDS011;8562;52.246;20.966;2022-10-13T07:29:37;8.33;;;5.73;;
16890;SDS011;8562;52.246;20.966;2022-10-13T07:32:03;7.77;;;5.37;;
16890;SDS011;8562;52.246;20.966;2022-10-13T07:34:30;12.60;;;6.33;;
16890;SDS011;8562;52.246;20.966;2022-10-13T07:36:56;11.23;;;6.53;;
16890;SDS011;8562;52.246;20.966;2022-10-13T07:39:22;8.80;;;5.63;;
16890;SDS011;8562;52.246;20.966;2022-10-13T07:41:48;9.03;;;6.43;;
16890;SDS011;8562;52.246;20.966;2022-10-13T07:44:14;12.87;;;7.10;;
16890;SDS011;8562;52.246;20.966;2022-10-13T07:46:40;15.00;;;6.10;;
16890;SDS011;8562;52.246;20.966;2022-10-13T07:49:07;9.53;;;5.80;;
16890;SDS011;8562;52.246;20.966;2022-10-13T07:51:33;6.43;;;4.90;;
16890;SDS011;8562;52.246;20.966;2022-10-13T07:53:59;7.07;;;4.23;;
16890;SDS011;8562;52.246;20.966;2022-10-13T07:56:25;11.33;;;5.40;;
16890;SDS011;8562;52.246;20.966;2022-10-13T07:58:51;7.17;;;3.43;;
16890;SDS011;8562;52.246;20.966;2022-10-13T08:01:17;7.33;;;4.20;;
16890;SDS011;8562;52.246;20.966;2022-10-13T08:03:43;9.40;;;4.83;;
16890;SDS011;8562;52.246;20.966;2022-10-13T08:06:14;11.03;;;4.63;;
16890;SDS011;8562;52.246;20.966;2022-10-13T08:08:41;8.00;;;4.67;;
16890;SDS011;8562;52.246;20.966;2022-10-13T08:11:11;4.67;;;4.07;;
16890;SDS011;8562;52.246;20.966;2022-10-13T08:13:37;9.17;;;5.03;;
16890;SDS011;8562;52.246;20.966;2022-10-13T08:16:11;6.77;;;4.70;;
16890;SDS011;8562;52.246;20.966;2022-10-13T08:18:37;8.33;;;4.93;;
16890;SDS011;8562;52.246;20.966;2022-10-13T08:21:07;13.87;;;6.40;;
16890;SDS011;8562;52.246;20.966;2022-10-13T08:23:34;7.00;;;4.87;;
16890;SDS011;8562;52.246;20.966;2022-10-13T08:26:00;9.77;;;5.43;;
16890;SDS011;8562;52.246;20.966;2022-10-13T08:28:27;13.00;;;4.90;;
16890;SDS011;8562;52.246;20.966;2022-10-13T08:30:56;9.57;;;5.10;;
16890;SDS011;8562;52.246;20.966;2022-10-13T08:33:23;10.83;;;4.97;;
16890;SDS011;8562;52.246;20.966;2022-10-13T08:35:50;7.37;;;4.80;;
16890;SDS011;8562;52.246;20.966;2022-10-13T08:38:17;9.33;;;4.97;;
16890;SDS011;8562;52.246;20.966;2022-10-13T08:40:47;9.10;;;5.43;;
16890;SDS011;8562;52.246;20.966;2022-10-13T08:43:14;7.90;;;4.67;;
16890;SDS011;8562;52.246;20.966;2022-10-13T08:45:41;7.03;;;4.00;;
16890;SDS011;8562;52.246;20.966;2022-10-13T08:48:12;7.57;;;5.30;;
16890;SDS011;8562;52.246;20.966;2022-10-13T08:50:40;10.97;;;4.90;;
16890;SDS011;8562;52.246;20.966;2022-10-13T08:53:11;4.10;;;3.70;;
16890;SDS011;8562;52.246;20.966;2022-10-13T08:55:46;5.13;;;3.87;;
16890;SDS011;8562;52.246;20.966;2022-10-13T08:58:18;9.80;;;5.07;;
16890;SDS011;8562;52.246;20.966;2022-10-13T09:00:45;11.83;;;4.37;;
16890;SDS011;8562;52.246;20.966;2022-10-13T09:05:42;7.17;;;4.60;;
16890;SDS011;8562;52.246;20.966;2022-10-13T09:08:13;5.80;;;4.30;;
16890;SDS011;8562;52.246;20.966;2022-10-13T09:10:48;5.00;;;3.97;;
16890;SDS011;8562;52.246;20.966;2022-10-13T09:13:17;8.67;;;4.57;;
16890;SDS011;8562;52.246;20.966;2022-10-13T09:15:45;6.43;;;4.20;;
16890;SDS011;8562;52.246;20.966;2022-10-13T09:18:12;8.73;;;5.00;;
16890;SDS011;8562;52.246;20.966;2022-10-13T09:20:39;5.80;;;3.77;;
16890;SDS011;8562;52.246;20.966;2022-10-13T09:23:08;5.30;;;4.70;;
16890;SDS011;8562;52.246;20.966;2022-10-13T09:25:42;8.23;;;4.53;;
16890;SDS011;8562;52.246;20.966;2022-10-13T09:28:19;8.43;;;5.70;;
16890;SDS011;8562;52.246;20.966;2022-10-13T09:30:46;6.87;;;4.17;;
16890;SDS011;8562;52.246;20.966;2022-10-13T09:33:14;7.43;;;4.67;;
16890;SDS011;8562;52.246;20.966;2022-10-13T09:35:42;7.47;;;4.77;;
16890;SDS011;8562;52.246;20.966;2022-10-13T09:38:19;7.47;;;4.93;;
16890;SDS011;8562;52.246;20.966;2022-10-13T09:40:59;7.47;;;4.60;;
16890;SDS011;8562;52.246;20.966;2022-10-13T09:43:41;8.10;;;4.93;;
16890;SDS011;8562;52.246;20.966;2022-10-13T09:46:12;4.77;;;3.60;;
16890;SDS011;8562;52.246;20.966;2022-10-13T09:48:45;7.53;;;4.13;;
16890;SDS011;8562;52.246;20.966;2022-10-13T09:53:54;8.93;;;3.50;;
16890;SDS011;8562;52.246;20.966;2022-10-13T09:56:35;5.83;;;3.73;;
16890;SDS011;8562;52.246;20.966;2022-10-13T09:59:38;8.87;;;3.63;;
16890;SDS011;8562;52.246;20.966;2022-10-13T10:01:57;5.73;;;3.53;;
16890;SDS011;8562;52.246;20.966;2022-10-13T10:04:29;4.50;;;3.30;;
16890;SDS011;8562;52.246;20.966;2022-10-13T10:06:56;6.70;;;3.90;;
16890;SDS011;8562;52.246;20.966;2022-10-13T10:09:43;6.33;;;3.63;;
16890;SDS011;8562;52.246;20.966;2022-10-13T10:12:13;6.93;;;3.43;;
16890;SDS011;8562;52.246;20.966;2022-10-13T10:14:40;7.30;;;3.83;;
16890;SDS011;8562;52.246;20.966;2022-10-13T10:37:03;3.57;;;2.10;;
16890;SDS011;8562;52.246;20.966;2022-10-13T10:39:39;1.90;;;1.70;;
16890;SDS011;8562;52.246;20.966;2022-10-13T10:42:10;4.50;;;2.03;;
16890;SDS011;8562;52.246;20.966;2022-10-13T10:44:43;5.20;;;2.03;;
16890;SDS011;8562;52.246;20.966;2022-10-13T10:47:18;2.90;;;2.47;;
16890;SDS011;8562;52.246;20.966;2022-10-13T10:49:45;3.53;;;2.30;;
16890;SDS011;8562;52.246;20.966;2022-10-13T10:52:18;6.40;;;2.23;;
16890;SDS011;8562;52.246;20.966;2022-10-13T10:54:56;2.63;;;2.10;;
16890;SDS011;8562;52.246;20.966;2022-10-13T10:57:28;1.90;;;1.50;;
16890;SDS011;8562;52.246;20.966;2022-10-13T11:02:43;3.07;;;1.90;;
16890;SDS011;8562;52.246;20.966;2022-10-13T11:05:13;5.80;;;2.33;;
16890;SDS011;8562;52.246;20.966;2022-10-13T11:15:13;5.57;;;1.40;;
16890;SDS011;8562;52.246;20.966;2022-10-13T11:17:41;3.27;;;1.53;;
16890;SDS011;8562;52.246;20.966;2022-10-13T11:23:24;3.37;;;1.53;;
16890;SDS011;8562;52.246;20.966;2022-10-13T11:30:54;2.87;;;1.30;;
16890;SDS011;8562;52.246;20.966;2022-10-13T11:38:49;5.43;;;1.80;;
16890;SDS011;8562;52.246;20.966;2022-10-13T11:41:20;4.80;;;1.90;;
16890;SDS011;8562;52.246;20.966;2022-10-13T11:46:22;1.90;;;1.80;;
16890;SDS011;8562;52.246;20.966;2022-10-13T11:54:03;3.00;;;2.13;;
16890;SDS011;8562;52.246;20.966;2022-10-13T11:56:35;4.20;;;2.03;;
16890;SDS011;8562;52.246;20.966;2022-10-13T11:59:01;4.80;;;2.23;;
16890;SDS011;8562;52.246;20.966;2022-10-13T12:01:27;3.27;;;1.80;;
16890;SDS011;8562;52.246;20.966;2022-10-13T12:03:53;2.30;;;1.97;;
16890;SDS011;8562;52.246;20.966;2022-10-13T12:08:59;5.43;;;2.23;;
16890;SDS011;8562;52.246;20.966;2022-10-13T12:11:30;4.07;;;1.83;;
16890;SDS011;8562;52.246;20.966;2022-10-13T12:13:57;8.60;;;1.90;;
16890;SDS011;8562;52.246;20.966;2022-10-13T12:16:24;3.40;;;1.70;;
16890;SDS011;8562;52.246;20.966;2022-10-13T12:18:51;4.67;;;2.00;;
16890;SDS011;8562;52.246;20.966;2022-10-13T12:21:18;3.03;;;1.80;;
16890;SDS011;8562;52.246;20.966;2022-10-13T12:23:49;4.70;;;1.40;;
16890;SDS011;8562;52.246;20.966;2022-10-13T12:26:16;5.80;;;2.20;;
16890;SDS011;8562;52.246;20.966;2022-10-13T12:29:16;4.07;;;1.70;;
16890;SDS011;8562;52.246;20.966;2022-10-13T12:31:45;3.80;;;1.80;;
16890;SDS011;8562;52.246;20.966;2022-10-13T12:34:17;2.30;;;1.77;;
16890;SDS011;8562;52.246;20.966;2022-10-13T12:36:44;5.47;;;1.83;;
16890;SDS011;8562;52.246;20.966;2022-10-13T12:39:11;3.30;;;1.97;;
16890;SDS011;8562;52.246;20.966;2022-10-13T12:41:39;8.47;;;2.30;;
16890;SDS011;8562;52.246;20.966;2022-10-13T12:44:07;2.10;;;1.20;;
16890;SDS011;8562;52.246;20.966;2022-10-13T12:49:14;3.87;;;1.80;;
16890;SDS011;8562;52.246;20.966;2022-10-13T12:51:41;1.97;;;1.60;;
16890;SDS011;8562;52.246;20.966;2022-10-13T12:54:27;2.30;;;1.47;;
16890;SDS011;8562;52.246;20.966;2022-10-13T12:56:55;6.57;;;1.80;;
16890;SDS011;8562;52.246;20.966;2022-10-13T12:59:22;1.63;;;1.50;;
16890;SDS011;8562;52.246;20.966;2022-10-13T13:01:56;4.53;;;1.83;;
16890;SDS011;8562;52.246;20.966;2022-10-13T13:07:02;2.90;;;1.20;;
16890;SDS011;8562;52.246;20.966;2022-10-13T13:09:32;3.50;;;1.77;;
16890;SDS011;8562;52.246;20.966;2022-10-13T13:12:03;4.03;;;1.93;;
16890;SDS011;8562;52.246;20.966;2022-10-13T13:14:40;4.07;;;1.63;;
16890;SDS011;8562;52.246;20.966;2022-10-13T13:19:42;6.37;;;2.00;;
16890;SDS011;8562;52.246;20.966;2022-10-13T13:22:09;5.43;;;2.17;;
16890;SDS011;8562;52.246;20.966;2022-10-13T13:24:35;4.37;;;2.40;;
16890;SDS011;8562;52.246;20.966;2022-10-13T13:29:46;3.77;;;2.33;;
16890;SDS011;8562;52.246;20.966;2022-10-13T13:32:13;5.83;;;2.00;;
16890;SDS011;8562;52.246;20.966;2022-10-13T13:34:39;3.97;;;1.90;;
16890;SDS011;8562;52.246;20.966;2022-10-13T13:37:08;5.07;;;1.67;;
16890;SDS011;8562;52.246;20.966;2022-10-13T13:39:36;3.03;;;2.20;;
16890;SDS011;8562;52.246;20.966;2022-10-13T13:42:02;4.60;;;2.20;;
16890;SDS011;8562;52.246;20.966;2022-10-13T13:44:29;4.67;;;1.60;;
16890;SDS011;8562;52.246;20.966;2022-10-13T13:46:55;4.90;;;2.00;;
16890;SDS011;8562;52.246;20.966;2022-10-13T13:49:21;5.70;;;2.10;;
16890;SDS011;8562;52.246;20.966;2022-10-13T13:51:47;3.73;;;2.00;;
16890;SDS011;8562;52.246;20.966;2022-10-13T13:54:13;6.77;;;2.67;;
16890;SDS011;8562;52.246;20.966;2022-10-13T13:56:39;7.97;;;1.73;;
16890;SDS011;8562;52.246;20.966;2022-10-13T13:59:05;4.47;;;2.30;;
16890;SDS011;8562;52.246;20.966;2022-10-13T14:01:31;6.97;;;2.67;;
16890;SDS011;8562;52.246;20.966;2022-10-13T14:03:58;4.90;;;2.57;;
16890;SDS011;8562;52.246;20.966;2022-10-13T14:06:24;5.97;;;2.10;;
16890;SDS011;8562;52.246;20.966;2022-10-13T14:08:50;4.87;;;2.33;;
16890;SDS011;8562;52.246;20.966;2022-10-13T14:11:16;4.87;;;2.10;;
16890;SDS011;8562;52.246;20.966;2022-10-13T14:13:43;5.67;;;2.20;;
16890;SDS011;8562;52.246;20.966;2022-10-13T14:16:13;5.03;;;2.27;;
16890;SDS011;8562;52.246;20.966;2022-10-13T14:18:40;5.07;;;2.47;;
16890;SDS011;8562;52.246;20.966;2022-10-13T14:21:07;5.60;;;2.07;;
16890;SDS011;8562;52.246;20.966;2022-10-13T14:23:33;6.43;;;2.30;;
16890;SDS011;8562;52.246;20.966;2022-10-13T14:26:03;3.87;;;2.03;;
16890;SDS011;8562;52.246;20.966;2022-10-13T14:28:30;6.33;;;2.13;;
16890;SDS011;8562;52.246;20.966;2022-10-13T14:30:56;2.70;;;2.20;;
16890;SDS011;8562;52.246;20.966;2022-10-13T14:33:23;3.33;;;1.93;;
16890;SDS011;8562;52.246;20.966;2022-10-13T14:35:49;6.20;;;2.87;;
16890;SDS011;8562;52.246;20.966;2022-10-13T14:38:16;5.03;;;2.30;;
16890;SDS011;8562;52.246;20.966;2022-10-13T14:40:46;5.43;;;2.63;;
16890;SDS011;8562;52.246;20.966;2022-10-13T14:43:12;5.03;;;2.27;;
16890;SDS011;8562;52.246;20.966;2022-10-13T14:45:38;4.03;;;2.53;;
16890;SDS011;8562;52.246;20.966;2022-10-13T14:48:04;3.10;;;2.00;;
16890;SDS011;8562;52.246;20.966;2022-10-13T14:50:30;7.17;;;2.30;;
16890;SDS011;8562;52.246;20.966;2022-10-13T14:52:56;5.67;;;2.13;;
16890;SDS011;8562;52.246;20.966;2022-10-13T14:55:23;4.17;;;2.50;;
16890;SDS011;8562;52.246;20.966;2022-10-13T14:57:49;8.43;;;2.67;;
16890;SDS011;8562;52.246;20.966;2022-10-13T15:00:16;6.23;;;2.63;;
16890;SDS011;8562;52.246;20.966;2022-10-13T15:02:42;6.30;;;2.37;;
16890;SDS011;8562;52.246;20.966;2022-10-13T15:05:09;5.17;;;2.23;;
16890;SDS011;8562;52.246;20.966;2022-10-13T15:07:35;5.37;;;2.67;;
16890;SDS011;8562;52.246;20.966;2022-10-13T15:10:01;3.87;;;2.33;;
16890;SDS011;8562;52.246;20.966;2022-10-13T15:12:27;5.27;;;2.20;;
16890;SDS011;8562;52.246;20.966;2022-10-13T15:14:53;5.40;;;3.80;;
16890;SDS011;8562;52.246;20.966;2022-10-13T15:17:19;2.77;;;2.33;;
16890;SDS011;8562;52.246;20.966;2022-10-13T15:19:46;5.83;;;1.53;;
16890;SDS011;8562;52.246;20.966;2022-10-13T15:22:12;6.63;;;2.47;;
16890;SDS011;8562;52.246;20.966;2022-10-13T15:24:38;5.80;;;1.70;;
16890;SDS011;8562;52.246;20.966;2022-10-13T15:27:04;6.27;;;2.47;;
16890;SDS011;8562;52.246;20.966;2022-10-13T15:29:30;3.97;;;1.97;;
16890;SDS011;8562;52.246;20.966;2022-10-13T15:32:05;3.13;;;2.33;;
16890;SDS011;8562;52.246;20.966;2022-10-13T15:34:31;4.00;;;2.30;;
16890;SDS011;8562;52.246;20.966;2022-10-13T15:36:57;5.30;;;2.50;;
16890;SDS011;8562;52.246;20.966;2022-10-13T15:39:24;4.60;;;3.43;;
16890;SDS011;8562;52.246;20.966;2022-10-13T15:41:50;4.63;;;2.17;;
16890;SDS011;8562;52.246;20.966;2022-10-13T15:44:16;12.13;;;3.00;;
16890;SDS011;8562;52.246;20.966;2022-10-13T15:46:45;4.63;;;2.60;;
16890;SDS011;8562;52.246;20.966;2022-10-13T15:49:11;12.10;;;2.47;;
16890;SDS011;8562;52.246;20.966;2022-10-13T15:51:37;7.20;;;2.83;;
16890;SDS011;8562;52.246;20.966;2022-10-13T15:54:03;4.03;;;2.03;;
16890;SDS011;8562;52.246;20.966;2022-10-13T15:56:29;5.47;;;2.10;;
16890;SDS011;8562;52.246;20.966;2022-10-13T15:58:55;9.30;;;2.47;;
16890;SDS011;8562;52.246;20.966;2022-10-13T16:01:22;4.17;;;2.20;;
16890;SDS011;8562;52.246;20.966;2022-10-13T16:03:51;5.03;;;2.43;;
16890;SDS011;8562;52.246;20.966;2022-10-13T16:06:17;4.60;;;2.77;;
16890;SDS011;8562;52.246;20.966;2022-10-13T16:08:46;4.07;;;2.57;;
16890;SDS011;8562;52.246;20.966;2022-10-13T16:11:14;5.93;;;2.60;;
16890;SDS011;8562;52.246;20.966;2022-10-13T16:13:41;5.17;;;2.07;;
16890;SDS011;8562;52.246;20.966;2022-10-13T16:16:10;3.23;;;1.67;;
16890;SDS011;8562;52.246;20.966;2022-10-13T16:18:36;3.77;;;2.53;;
16890;SDS011;8562;52.246;20.966;2022-10-13T16:21:23;6.33;;;2.43;;
16890;SDS011;8562;52.246;20.966;2022-10-13T16:23:52;4.33;;;2.60;;